Nearby METAR Reports

 

ENCN - Kristiansand/Kje, Norway
Distance from station: N 17km
Actualizado: 21/10/2019 22:20
Muito nublado
Muito nublado
 Vento de varies
Vento: varies 2 km/h
Temperatura: 8°C
Ponto de Orvalho: 7°C
Humidade: 93%
Barómetro: 1018 hPa
Clouds: Muito nublado
Visibility: 10 km
Cloud details: Few Clouds 518 m
Muito nublado 1097 m
2019/10/21 20:20 ENCN 212020Z VRB01KT 9999 FEW017 BKN036 08/07 Q1018
EKSN - Sindal Airport, Denmark
Distance from station: ESE 145km
Actualizado: 21/10/2019 15:50
NOT Current
Muito nublado
Muito nublado
 Vento de varies
Vento: varies 6 km/h
Temperatura: 8°C
Ponto de Orvalho: 6°C
Humidade: 87%
Barómetro: 1020 hPa
Clouds: Muito nublado
Visibility: 10 km
Cloud details: Muito nublado 427 m
2019/10/21 13:50 EKSN 211350Z VRB03KT 9999 BKN014 08/06 Q1020
 
EKYT - Alborg, Denmark
Distance from station: SE 153km
Actualizado: 21/10/2019 22:20
Muito nublado
Muito nublado
 Vento de calm
Vento: Calmo
Temperatura: 7°C
Ponto de Orvalho: 7°C
Humidade: 100%
Barómetro: 1019 hPa
Clouds: Muito nublado
Visibility: 5 km
Cloud details: Muito nublado 427 m
Muito nublado 579 m
2019/10/21 20:20 EKYT 212020Z AUTO 00000KT 5000 BKN014/// BKN019/// 07/07 Q1019
ENSN - Skien/Geiterygge, Norway
Distance from station: NE 153km
Actualizado: 09/11/2015 09:50
NOT Current
Céu Limpo
Céu Limpo
 Vento de SSW
Vento: SSW 19 km/h, Rajada: 41 km/h
Temperatura: 7°C
Wind Chill: 4°C
Ponto de Orvalho: 3°C
Humidade: 76%
Barómetro: 1000 hPa
Resumo: Céu Limpo
Visibility: greater than 10 km
2015/11/09 08:50 ENSN 090850Z 20010G22KT 150V240 CAVOK 07/03 Q1000
 
ENZV - Stavanger/Sola(A, Norway
Distance from station: NW 166km
Actualizado: 21/10/2019 22:20
Muito nublado
Muito nublado
 Vento de S
Vento: S 9 km/h
Temperatura: 8°C
Wind Chill: 6°C
Ponto de Orvalho: 6°C
Humidade: 87%
Barómetro: 1017 hPa
Clouds: Muito nublado
Visibility: 10 km
Cloud details: Few Clouds 610 m
Muito nublado 1006 m
2019/10/21 20:20 ENZV 212020Z 17005KT 9999 FEW020 BKN033 08/06 Q1017
ENNO - Notodden, Norway
Distance from station: NNE 182km
Actualizado: 21/10/2019 18:50
NOT Current
Muito nublado
Muito nublado
 Vento de WNW
Vento: WNW 9 km/h
Temperatura: 5°C
Wind Chill: 3°C
Ponto de Orvalho: 3°C
Humidade: 87%
Barómetro: 1018 hPa
Clouds: Muito nublado
Visibility: 10 km
Cloud details: Muito nublado 396 m
2019/10/21 16:50 ENNO 211650Z 30005KT 9999 BKN013 05/03 Q1018
 
ENTO - Torp (civ/Nor-Af, Norway
Distance from station: NE 183km
Actualizado: 21/10/2019 22:20
Encoberto
Encoberto
 Vento de SSW
Vento: SSW 17 km/h
Temperatura: 7°C
Wind Chill: 4°C
Ponto de Orvalho: 5°C
Humidade: 87%
Barómetro: 1016 hPa
Clouds: Encoberto
Visibility: 10 km
Cloud details: Encoberto 732 m
2019/10/21 20:20 ENTO 212020Z 20009KT 9999 OVC024 07/05 Q1016 NOSIG
EKKA - Karup (dan-Afb), Denmark
Distance from station: SSE 209km
Actualizado: 21/10/2019 22:20
Light drizzle, Muito nublado
Light drizzle, Muito nublado
 Vento de ENE
Vento: ENE 7 km/h
Temperatura: 9°C
Wind Chill: 8°C
Ponto de Orvalho: 8°C
Humidade: 94%
Barómetro: 1019 hPa
Resumo: Light Drizzle
Clouds: Muito nublado
Visibility: 5 km
Cloud details: Few Clouds 91 m
Muito nublado 579 m
2019/10/21 20:20 EKKA 212020Z AUTO 06004KT 5000 -DZ FEW003/// BKN019/// 09/08 Q1019 TEMPO 2500 -RADZ BR BKN003
 
ENHD - Haugesund/Karmoy, Norway
Distance from station: NW 216km
Actualizado: 21/10/2019 22:20
Muito nublado
Muito nublado
 Vento de SW
Vento: SW 31 km/h
Temperatura: 9°C
Wind Chill: 5°C
Ponto de Orvalho: 3°C
Humidade: 66%
Barómetro: 1016 hPa
Clouds: Muito nublado
Visibility: 10 km
Cloud details: Few Clouds 823 m
Muito nublado 1006 m
2019/10/21 20:20 ENHD 212020Z 22017KT 9999 FEW027 BKN033 09/03 Q1016
ENRY - Rygge (nor-Afb), Norway
Distance from station: NE 216km
Actualizado: 21/10/2019 22:20
Encoberto
Encoberto
 Vento de SSE
Vento: SSE 11 km/h
Temperatura: 6°C
Wind Chill: 4°C
Ponto de Orvalho: 5°C
Humidade: 93%
Barómetro: 1017 hPa
Clouds: Encoberto
Visibility: 10 km
Cloud details: Few Clouds 305 m
Parcialmente nublado 427 m
Encoberto 640 m
2019/10/21 20:20 ENRY 212020Z AUTO 15006KT 9999NDV FEW010/// SCT014/// OVC021/// 06/05 Q1017
 
ESGP - Goteborg/Save (a, Sweden
Distance from station: E 230km
Actualizado: 02/01/2017 11:20
NOT Current
Céu Limpo
Céu Limpo
 Vento de calm
Vento: Calmo
Temperatura: -2°C
Ponto de Orvalho: -4°C
Humidade: 86%
Barómetro: 1012 hPa
Clouds: Céu Limpo
Visibility: 10 km
2017/01/02 10:20 ESGP 021020Z AUTO 00000KT 9999 NCD M02/M04 Q1012
EKVJ - Stauning Airport, Denmark
Distance from station: S 233km
Actualizado: 21/10/2019 15:50
NOT Current
Chuva fraca, Drizzle, Muito nublado
Chuva fraca, Drizzle, Muito nublado
 Vento de NE
Vento: NE 4 km/h
Temperatura: 10°C
Ponto de Orvalho: 10°C
Humidade: 100%
Barómetro: 1018 hPa
Resumo: Chuva fraca, Drizzle
Clouds: Muito nublado
Visibility: 7 km
Cloud details: Few Clouds 244 m
Parcialmente nublado 1524 m
Muito nublado 3048 m
2019/10/21 13:50 EKVJ 211350Z 05002KT 7000 -RADZ FEW008 SCT050 BKN100 10/10 Q1018
 
ENSO - Stord/Soerstokke, Norway
Distance from station: NW 246km
Actualizado: 21/10/2019 18:50
NOT Current
Muito nublado
Muito nublado
 Vento de SSW
Vento: SSW 11 km/h
Temperatura: 8°C
Wind Chill: 6°C
Ponto de Orvalho: 3°C
Humidade: 71%
Barómetro: 1018 hPa
Clouds: Muito nublado
Visibility: 10 km
Cloud details: Few Clouds 914 m
Muito nublado 1219 m
2019/10/21 16:50 ENSO 211650Z 21006KT 9999 FEW030 BKN040 08/03 Q1018
EKAH - Tirstrup (civ/Mi, Denmark
Distance from station: SE 252km
Actualizado: 21/10/2019 22:20
Mist, Muito nublado
Mist, Muito nublado
 Vento de NNW
Vento: NNW 9 km/h
Temperatura: 10°C
Wind Chill: 9°C
Ponto de Orvalho: 10°C
Humidade: 100%
Barómetro: 1019 hPa
Resumo: Mist
Clouds: Muito nublado
Visibility: 3 km
Cloud details: Muito nublado 30 m
Muito nublado 335 m
2019/10/21 20:20 EKAH 212020Z AUTO 34005KT 2500NDV BR BKN001/// BKN011/// 10/10 Q1019
 
ESGT - Trollhattan (pvt, Sweden
Distance from station: E 255km
Actualizado: 21/10/2019 22:20
Chuva fraca, Encoberto
Chuva fraca, Encoberto
 Vento de W
Vento: W 11 km/h
Temperatura: 6°C
Wind Chill: 4°C
Ponto de Orvalho: 4°C
Humidade: 87%
Barómetro: 1019 hPa
Resumo: Chuva fraca
Clouds: Encoberto
Visibility: 10 km
Cloud details: Encoberto 244 m
2019/10/21 20:20 ESGT 212020Z AUTO 27006KT 240V300 9999 -RA OVC008/// 06/04 Q1019 RERA
ESGG - Goteborg/Landvet, Sweden
Distance from station: E 257km
Actualizado: 21/10/2019 22:20
Fog, Encoberto
Fog, Encoberto
 Vento de SSE
Vento: SSE 9 km/h
Temperatura: 7°C
Wind Chill: 6°C
Ponto de Orvalho: 6°C
Humidade: 93%
Barómetro: 1018 hPa
Resumo: Fog
Clouds: Encoberto
Visibility: 0 km
Cloud details: Encoberto 61 m
2019/10/21 20:20 ESGG 212020Z 16005KT 0300 R03/0900N R21/0800N FG VV002 07/06 Q1018
 
EKBI - Billund Airport, Denmark
Distance from station: SSE 269km
Actualizado: 21/10/2019 22:20
Drizzle, Mist, Encoberto
Drizzle, Mist, Encoberto
 Vento de ENE
Vento: ENE 7 km/h
Temperatura: 10°C
Wind Chill: 9°C
Ponto de Orvalho: 9°C
Humidade: 94%
Barómetro: 1018 hPa
Resumo: Drizzle, Mist
Clouds: Encoberto
Visibility: 4 km
Cloud details: Encoberto 122 m
2019/10/21 20:20 EKBI 212020Z AUTO 06004KT 3600 DZ BR OVC004/// 10/09 Q1018
EKHN - Horns Rev B Heli, Denmark
Distance from station: S 274km
Actualizado: 09/08/2016 14:20
NOT Current
Few Clouds
Few Clouds
 Vento de WNW
Vento: WNW 50 km/h, Rajada: 72 km/h
Temperatura: 14°C
Ponto de Orvalho: 10°C
Humidade: 77%
Barómetro: 1018 hPa
Clouds: Few Clouds
Visibility: 10 km
Cloud details: Few Clouds 1158 m
Few Clouds 2438 m
2016/08/09 12:20 EKHN 091220Z AUTO 29027G39KT 270V340 9999NDV FEW038/// FEW080/// 14/10 Q1018
 
ESIB - Satenas (swe-Afb, Sweden
Distance from station: E 277km
Actualizado: 21/10/2019 22:20
Encoberto
Encoberto
 Vento de W
Vento: W 17 km/h
Temperatura: 6°C
Wind Chill: 3°C
Ponto de Orvalho: 6°C
Humidade: 100%
Barómetro: 1018 hPa
Clouds: Encoberto
Visibility: 10 km
Cloud details: Encoberto 244 m
2019/10/21 20:20 ESIB 212020Z AUTO 28009KT 9999 OVC008/// 06/06 Q1018
EKHR - Horns Rev B Heli, Denmark
Distance from station: S 282km
Actualizado: 04/10/2016 06:20
NOT Current
Céu Limpo
Céu Limpo
 Vento de E
Vento: E 4 km/h
Temperatura: 11°C
Ponto de Orvalho: -49°C
Humidade: 0%
Barómetro: 1038 hPa
Clouds: Céu Limpo
Visibility: 10 km
2016/10/04 04:20 EKHR 040420Z AUTO 08002KT 9999NDV NCD 11/M49 Q1038